createdAt,value
2022-11-05T00:21:07.042Z,81.51
2022-11-05T00:23:53.683Z,81.57
2022-11-05T00:26:21.660Z,82.10
2022-11-05T00:28:49.662Z,81.79
2022-11-05T00:31:20.096Z,81.19
2022-11-05T00:33:48.022Z,81.14
2022-11-05T00:36:16.023Z,81.41
2022-11-05T00:38:43.941Z,82.05
2022-11-05T00:41:11.978Z,81.93
2022-11-05T00:43:58.453Z,82.48
2022-11-05T00:46:26.568Z,82.71
2022-11-05T00:49:13.031Z,82.91
2022-11-05T00:51:41.001Z,82.61
2022-11-05T00:54:08.934Z,82.75
2022-11-05T00:56:36.850Z,83.19
2022-11-05T00:59:05.033Z,82.93
2022-11-05T01:01:33.264Z,82.63
2022-11-05T01:04:01.260Z,82.59
2022-11-05T01:06:29.229Z,82.46
2022-11-05T01:08:57.273Z,82.70
2022-11-05T01:11:34.476Z,82.50
2022-11-05T01:14:11.341Z,83.14
2022-11-05T01:16:40.682Z,83.40
2022-11-05T01:19:10.056Z,83.12
2022-11-05T01:21:38.407Z,83.53
2022-11-05T01:24:06.804Z,84.03
2022-11-05T01:26:34.717Z,84.39
2022-11-05T01:29:02.689Z,84.22
2022-11-05T01:31:30.962Z,84.14
2022-11-05T01:34:01.756Z,83.91
2022-11-05T01:36:30.336Z,83.10
2022-11-05T01:38:58.232Z,82.87
2022-11-05T01:41:26.386Z,83.20
2022-11-05T01:43:57.077Z,83.51
2022-11-05T01:46:33.113Z,83.29
2022-11-05T01:49:15.691Z,83.04
2022-11-05T01:51:45.819Z,83.47
2022-11-05T01:54:18.350Z,82.95
2022-11-05T01:57:03.111Z,82.37
2022-11-05T01:59:37.802Z,82.33
2022-11-05T02:02:08.006Z,82.49
2022-11-05T02:05:04.529Z,82.94
2022-11-05T02:07:33.985Z,82.56
2022-11-05T02:10:08.890Z,82.95
2022-11-05T02:12:41.540Z,82.90
2022-11-05T02:15:14.815Z,83.10
2022-11-05T02:17:51.955Z,84.46
2022-11-05T02:20:33.808Z,84.25
2022-11-05T02:23:29.210Z,84.04
2022-11-05T02:26:18.556Z,84.06
2022-11-05T02:28:46.454Z,84.00
2022-11-05T02:31:32.562Z,84.02
2022-11-05T02:34:35.731Z,84.68
2022-11-05T02:37:13.800Z,85.05
2022-11-05T02:39:56.219Z,84.79
2022-11-05T02:42:38.600Z,84.45
2022-11-05T02:45:52.510Z,84.22
2022-11-05T02:48:35.117Z,84.64
2022-11-05T02:51:13.674Z,84.81
2022-11-05T02:54:00.086Z,84.46
2022-11-05T02:56:32.993Z,83.94
2022-11-05T02:59:00.885Z,83.88
2022-11-05T03:01:28.915Z,83.72
2022-11-05T03:04:01.014Z,84.00
2022-11-05T03:06:47.691Z,84.40
2022-11-05T03:09:31.348Z,84.37
2022-11-05T03:12:14.835Z,84.84
2022-11-05T03:14:56.085Z,84.91
2022-11-05T03:17:51.926Z,85.16
2022-11-05T03:20:32.658Z,84.74
2022-11-05T03:23:30.083Z,84.37
2022-11-05T03:26:26.447Z,84.09
2022-11-05T03:29:13.238Z,84.06
2022-11-05T03:31:48.487Z,84.12
2022-11-05T03:34:26.841Z,83.37
2022-11-05T03:37:00.265Z,83.63
2022-11-05T03:39:46.065Z,83.87
2022-11-05T03:42:23.773Z,83.31
2022-11-05T03:44:58.963Z,83.39
2022-11-05T03:47:35.802Z,83.36
2022-11-05T03:50:27.981Z,83.57
2022-11-05T03:53:05.799Z,83.89
2022-11-05T03:55:40.197Z,83.88
2022-11-05T03:58:10.134Z,84.13
2022-11-05T04:00:38.447Z,84.52
2022-11-05T04:03:06.476Z,84.30
2022-11-05T04:05:34.631Z,84.79
2022-11-05T04:08:21.142Z,85.40
2022-11-05T04:11:07.730Z,84.66
2022-11-05T04:13:35.846Z,84.91
2022-11-05T04:16:22.677Z,84.69
2022-11-05T04:18:50.583Z,84.79
2022-11-05T04:21:39.639Z,84.58
2022-11-05T04:24:10.520Z,84.50
2022-11-05T04:26:43.846Z,84.48
2022-11-05T04:29:50.306Z,84.17
2022-11-05T04:32:18.257Z,84.11
2022-11-05T04:34:46.629Z,84.23
2022-11-05T04:37:14.565Z,84.35
2022-11-05T04:39:42.545Z,84.18
2022-11-05T04:42:10.480Z,84.24
2022-11-05T04:44:38.513Z,84.16
2022-11-05T04:47:06.522Z,84.36
2022-11-05T04:49:34.594Z,84.12
2022-11-05T04:52:02.553Z,84.21
2022-11-05T04:54:30.966Z,84.07
2022-11-05T04:56:59.044Z,83.92
2022-11-05T04:59:26.995Z,83.53
2022-11-05T05:01:54.990Z,83.53
2022-11-05T05:04:23.016Z,84.06
2022-11-05T05:06:51.088Z,84.24
2022-11-05T05:09:19.009Z,83.86
2022-11-05T05:11:47.053Z,82.95
2022-11-05T05:14:15.061Z,83.30
2022-11-05T05:16:42.957Z,83.72
2022-11-05T05:19:10.961Z,83.54
2022-11-05T05:21:39.091Z,83.31
2022-11-05T05:24:13.624Z,83.14
2022-11-05T05:26:49.689Z,82.99
2022-11-05T05:29:18.420Z,82.88
2022-11-05T05:31:46.690Z,82.76
2022-11-05T05:34:15.119Z,82.40
2022-11-05T05:36:43.179Z,82.20
2022-11-05T05:39:11.358Z,82.60
2022-11-05T05:41:39.534Z,82.99
2022-11-05T05:44:07.684Z,83.38
2022-11-05T05:46:35.696Z,83.18
2022-11-05T05:49:09.444Z,83.16
2022-11-05T05:51:40.384Z,83.39
2022-11-05T05:54:08.541Z,83.95
2022-11-05T05:56:36.531Z,84.38
2022-11-05T05:59:05.805Z,84.76
2022-11-05T06:01:33.915Z,84.32
2022-11-05T06:04:02.145Z,84.02
2022-11-05T06:06:30.305Z,84.07
2022-11-05T06:08:58.230Z,84.10
2022-11-05T06:11:26.724Z,82.05
2022-11-05T06:13:54.636Z,82.81
2022-11-05T06:16:22.649Z,82.90
2022-11-05T06:18:50.546Z,81.70
2022-11-05T06:21:18.569Z,81.32
2022-11-05T06:23:48.389Z,80.76
2022-11-05T06:26:18.661Z,79.92
2022-11-05T06:28:46.755Z,80.45
2022-11-05T06:31:15.609Z,80.64
2022-11-05T06:33:43.518Z,80.08
2022-11-05T06:36:15.851Z,79.85
2022-11-05T06:38:43.941Z,79.47
2022-11-05T06:41:11.878Z,79.24
2022-11-05T06:43:40.026Z,78.81
2022-11-05T06:46:09.661Z,79.04
2022-11-05T06:48:38.275Z,78.13
2022-11-05T06:51:08.201Z,78.07
2022-11-05T06:53:36.699Z,78.19
2022-11-05T06:56:06.368Z,77.77
2022-11-05T06:58:34.806Z,77.87
2022-11-05T07:01:10.726Z,77.14
2022-11-05T07:03:39.213Z,76.61
2022-11-05T07:06:07.853Z,76.70
2022-11-05T07:08:38.048Z,76.59
2022-11-05T07:11:06.252Z,76.98
2022-11-05T07:13:34.295Z,76.91
2022-11-05T07:16:02.650Z,76.96
2022-11-05T07:18:30.609Z,76.53
2022-11-05T07:20:59.645Z,76.64
2022-11-05T07:23:27.614Z,76.41
2022-11-05T07:25:57.034Z,75.61
2022-11-05T07:28:25.025Z,76.17
2022-11-05T07:30:54.100Z,75.90
2022-11-05T07:33:24.396Z,75.92
2022-11-05T07:35:52.290Z,76.16
2022-11-05T07:38:20.154Z,76.44
2022-11-05T07:40:48.279Z,76.90
2022-11-05T07:43:16.590Z,77.20
2022-11-05T07:45:45.875Z,77.62
2022-11-05T07:48:16.889Z,77.53
2022-11-05T07:50:44.894Z,77.43
2022-11-05T07:53:15.216Z,77.82
2022-11-05T07:55:45.974Z,77.07
2022-11-05T07:58:14.386Z,76.77
2022-11-05T08:00:42.793Z,77.69
2022-11-05T08:03:14.525Z,77.26
2022-11-05T08:05:46.161Z,76.91
2022-11-05T08:08:16.670Z,77.38
2022-11-05T08:10:45.005Z,78.01
2022-11-05T08:13:14.125Z,78.02
2022-11-05T08:15:43.352Z,77.86
2022-11-05T08:18:14.667Z,77.25
2022-11-05T08:20:44.188Z,75.54
2022-11-05T08:23:12.870Z,75.78
2022-11-05T08:25:42.015Z,77.02
2022-11-05T08:28:13.583Z,76.67
2022-11-05T08:30:41.959Z,75.35
2022-11-05T08:33:12.549Z,74.83
2022-11-05T08:35:41.081Z,75.02
2022-11-05T08:38:13.830Z,74.73
2022-11-05T08:40:44.265Z,73.58
2022-11-05T08:43:14.086Z,72.33
2022-11-05T08:45:42.727Z,71.90
2022-11-05T08:48:14.973Z,71.84
2022-11-05T08:50:44.373Z,72.25
2022-11-05T08:53:12.942Z,72.25
2022-11-05T08:55:41.299Z,71.67
2022-11-05T08:58:15.455Z,71.25
2022-11-05T09:00:45.858Z,70.33
2022-11-05T09:03:15.114Z,71.08
2022-11-05T09:05:43.913Z,69.28
2022-11-05T09:08:17.505Z,69.59
2022-11-05T09:10:47.008Z,69.71
2022-11-05T09:13:18.807Z,68.79
2022-11-05T09:15:49.243Z,68.13
2022-11-05T09:18:18.917Z,67.46
2022-11-05T09:20:47.256Z,67.44
2022-11-05T09:23:15.725Z,67.85
2022-11-05T09:25:45.049Z,68.06
2022-11-05T09:28:16.844Z,68.32
2022-11-05T09:30:48.090Z,68.93
2022-11-05T09:33:17.986Z,68.24
2022-11-05T09:35:46.595Z,67.68
2022-11-05T09:38:15.052Z,68.31
2022-11-05T09:41:02.737Z,68.30
2022-11-05T09:43:42.241Z,67.15
2022-11-05T09:46:25.771Z,67.60
2022-11-05T09:49:06.947Z,67.06
2022-11-05T09:51:36.925Z,66.46
2022-11-05T09:54:05.887Z,67.76
2022-11-05T09:56:37.598Z,67.98
2022-11-05T09:59:15.389Z,67.52
2022-11-05T10:01:43.776Z,66.45
2022-11-05T10:04:24.179Z,66.04
2022-11-05T10:07:01.823Z,63.82
2022-11-05T10:09:51.529Z,63.54
2022-11-05T10:12:45.037Z,61.33
2022-11-05T10:15:22.697Z,61.25
2022-11-05T10:17:56.754Z,59.27
2022-11-05T10:20:38.019Z,58.68
2022-11-05T10:23:12.065Z,58.40
2022-11-05T10:25:44.017Z,57.82
2022-11-05T10:28:18.519Z,58.29
2022-11-05T10:30:49.226Z,58.27
2022-11-05T10:33:28.229Z,57.59
2022-11-05T10:36:03.636Z,57.56
2022-11-05T10:38:32.257Z,57.08
2022-11-05T10:41:18.868Z,58.60
2022-11-05T10:43:54.049Z,56.70
2022-11-05T10:46:35.832Z,57.05
2022-11-05T10:49:15.297Z,56.44
2022-11-05T10:51:44.121Z,55.33
2022-11-05T10:54:19.349Z,55.33
2022-11-05T10:56:48.055Z,55.52
2022-11-05T10:59:28.384Z,55.27
2022-11-05T11:02:19.821Z,55.18
2022-11-05T11:04:53.165Z,55.54
2022-11-05T11:07:26.059Z,56.06
2022-11-05T11:09:54.406Z,55.28
2022-11-05T11:12:27.575Z,55.83
2022-11-05T11:15:13.691Z,56.55
2022-11-05T11:17:41.882Z,55.88
2022-11-05T11:20:30.230Z,56.65
2022-11-05T11:23:15.849Z,57.24
2022-11-05T11:25:58.209Z,57.49
2022-11-05T11:28:36.398Z,57.61
2022-11-05T11:31:22.381Z,57.87
2022-11-05T11:33:58.108Z,57.17
2022-11-05T11:36:36.269Z,57.23
2022-11-05T11:39:07.129Z,56.80
2022-11-05T11:41:39.296Z,57.40
2022-11-05T11:44:16.606Z,56.97
2022-11-05T11:46:49.589Z,56.70
2022-11-05T11:49:45.109Z,56.86
2022-11-05T11:52:25.388Z,56.53
2022-11-05T11:54:53.753Z,56.26
2022-11-05T11:57:26.583Z,56.04
2022-11-05T12:00:12.344Z,55.27
2022-11-05T12:02:57.274Z,55.17
2022-11-05T12:06:10.825Z,55.08
2022-11-05T12:09:06.446Z,54.68
2022-11-05T12:11:43.693Z,54.32
2022-11-05T12:14:17.657Z,54.68
2022-11-05T12:17:02.818Z,54.86
2022-11-05T12:20:04.151Z,55.35
2022-11-05T12:23:04.240Z,54.57
2022-11-05T12:25:35.112Z,54.54
2022-11-05T12:28:21.095Z,54.78
2022-11-05T12:30:53.333Z,55.32
2022-11-05T12:33:34.974Z,55.50
2022-11-05T12:36:22.722Z,55.76
2022-11-05T12:38:57.696Z,56.20
2022-11-05T12:41:37.607Z,57.06
2022-11-05T12:44:17.878Z,57.18
2022-11-05T12:46:53.785Z,56.70
2022-11-05T12:49:42.088Z,56.78
2022-11-05T12:52:16.152Z,57.45
2022-11-05T12:55:27.710Z,57.62
2022-11-05T12:58:08.828Z,57.49
2022-11-05T13:00:39.794Z,56.64
2022-11-05T13:03:40.191Z,57.16
2022-11-05T13:06:11.549Z,56.93
2022-11-05T13:08:52.040Z,57.16
2022-11-05T13:11:29.832Z,56.99
2022-11-05T13:14:23.785Z,57.13
2022-11-05T13:16:59.086Z,57.36
2022-11-05T13:19:36.598Z,56.88
2022-11-05T13:22:13.540Z,56.77
2022-11-05T13:24:55.494Z,56.84
2022-11-05T13:27:29.532Z,57.33
2022-11-05T13:30:04.835Z,57.49
2022-11-05T13:32:39.444Z,56.84
2022-11-05T13:35:16.854Z,57.45
2022-11-05T13:38:07.409Z,57.76
2022-11-05T13:40:55.541Z,57.79
2022-11-05T13:44:19.234Z,58.32
2022-11-05T13:47:21.243Z,58.52
2022-11-05T13:49:55.038Z,59.02
2022-11-05T13:53:01.506Z,59.22
2022-11-05T13:56:00.067Z,58.76
2022-11-05T13:58:52.602Z,58.58
2022-11-05T14:01:42.324Z,59.32
2022-11-05T14:04:44.897Z,59.63
2022-11-05T14:07:34.509Z,59.54
2022-11-05T14:10:26.911Z,59.89
2022-11-05T14:12:56.698Z,60.04
2022-11-05T14:15:28.503Z,59.54
2022-11-05T14:18:18.444Z,59.85
2022-11-05T14:21:03.792Z,59.56
2022-11-05T14:23:50.246Z,59.73
2022-11-05T14:26:21.587Z,59.78
2022-11-05T14:29:03.020Z,59.60
